createdAt,value
2024-02-11T00:00:43.307Z,29.90
2024-02-11T00:03:27.344Z,27.27
2024-02-11T00:06:02.015Z,28.60
2024-02-11T00:08:43.363Z,21.98
2024-02-11T00:11:14.924Z,23.85
2024-02-11T00:14:16.919Z,21.80
2024-02-11T00:17:06.940Z,19.60
2024-02-11T00:19:51.455Z,20.95
2024-02-11T00:22:18.664Z,16.52
2024-02-11T00:27:26.526Z,14.93
2024-02-11T00:30:00.535Z,15.48
2024-02-11T00:32:30.411Z,13.00
2024-02-11T00:35:15.049Z,11.63
2024-02-11T00:37:56.869Z,12.48
2024-02-11T00:40:35.554Z,9.95
2024-02-11T00:43:10.590Z,8.30
2024-02-11T00:45:45.604Z,7.78
2024-02-11T00:48:19.553Z,6.47
2024-02-11T00:50:59.764Z,6.03
2024-02-11T00:53:41.859Z,5.60
2024-02-11T00:56:43.487Z,5.25
2024-02-11T00:59:43.692Z,5.70
2024-02-11T01:02:21.956Z,7.28
2024-02-11T01:04:57.417Z,5.03
2024-02-11T01:07:40.733Z,2.95
2024-02-11T01:10:25.619Z,2.23
2024-02-11T01:13:07.026Z,1.63
2024-02-11T01:15:49.955Z,1.50
2024-02-11T01:18:31.283Z,1.88
2024-02-11T01:21:02.771Z,1.67
2024-02-11T01:23:42.707Z,2.30
2024-02-11T01:26:21.628Z,2.05
2024-02-11T01:29:18.624Z,2.20
2024-02-11T01:32:29.353Z,1.75
2024-02-11T01:34:59.122Z,1.87
2024-02-11T01:37:44.965Z,2.05
2024-02-11T01:40:33.195Z,1.48
2024-02-11T01:43:01.685Z,0.30
2024-02-11T01:45:43.689Z,0.40
2024-02-11T01:49:00.454Z,0.40
2024-02-11T01:52:06.835Z,1.00
2024-02-11T01:54:38.954Z,0.95
2024-02-11T01:57:24.960Z,1.40
2024-02-11T01:59:56.113Z,1.83
2024-02-11T02:02:43.467Z,2.30
2024-02-11T02:05:26.881Z,3.53
2024-02-11T02:08:14.644Z,2.45
2024-02-11T02:11:20.995Z,2.88
2024-02-11T02:13:57.548Z,2.75
2024-02-11T02:16:31.087Z,3.30
2024-02-11T02:19:06.368Z,2.30
2024-02-11T02:22:10.168Z,2.80
2024-02-11T02:25:08.251Z,4.80
2024-02-11T02:28:22.314Z,3.83
2024-02-11T02:31:12.333Z,3.25
2024-02-11T02:33:46.103Z,1.85
2024-02-11T02:36:23.542Z,4.50
2024-02-11T02:39:16.069Z,4.35
2024-02-11T02:42:04.206Z,3.25
2024-02-11T02:45:00.699Z,4.57
2024-02-11T02:47:38.025Z,4.38
2024-02-11T02:50:33.696Z,3.35
2024-02-11T02:53:15.981Z,5.10
2024-02-11T02:55:47.601Z,3.63
2024-02-11T02:58:24.049Z,3.15
2024-02-11T03:01:20.479Z,4.32
2024-02-11T03:03:59.835Z,5.82
2024-02-11T03:06:38.045Z,5.57
2024-02-11T03:09:14.542Z,5.82
2024-02-11T03:11:55.363Z,4.07
2024-02-11T03:14:38.283Z,8.35
2024-02-11T03:17:31.848Z,7.15
2024-02-11T03:20:06.889Z,6.55
2024-02-11T03:22:45.943Z,8.20
2024-02-11T03:25:21.090Z,4.88
2024-02-11T03:27:55.256Z,9.27
2024-02-11T03:30:24.029Z,6.60
2024-02-11T03:33:14.284Z,8.40
2024-02-11T03:38:44.245Z,6.90
2024-02-11T03:41:23.640Z,11.10
2024-02-11T03:43:56.847Z,9.05
2024-02-11T03:47:15.140Z,7.35
2024-02-11T03:50:00.476Z,6.03
2024-02-11T03:52:52.649Z,6.40
2024-02-11T03:55:46.726Z,10.48
2024-02-11T03:58:31.079Z,7.60
2024-02-11T04:01:09.901Z,8.93
2024-02-11T04:03:40.993Z,8.90
2024-02-11T04:06:50.190Z,9.90
2024-02-11T04:09:30.416Z,9.50
2024-02-11T04:12:05.049Z,9.75
2024-02-11T04:15:07.248Z,11.88
2024-02-11T04:18:25.800Z,10.65
2024-02-11T04:21:06.250Z,13.65
2024-02-11T04:23:41.705Z,11.88
2024-02-11T04:26:30.067Z,11.02
2024-02-11T04:29:06.965Z,14.32
2024-02-11T04:31:48.680Z,15.73
2024-02-11T04:34:25.595Z,16.77
2024-02-11T04:36:59.202Z,15.82
2024-02-11T04:39:52.727Z,16.58
2024-02-11T04:42:32.192Z,17.25
2024-02-11T04:45:09.700Z,16.17
2024-02-11T04:47:54.554Z,20.08
2024-02-11T04:50:44.764Z,16.83
2024-02-11T04:53:33.871Z,15.73
2024-02-11T04:56:32.201Z,21.48
2024-02-11T04:59:06.635Z,25.45
2024-02-11T05:01:43.024Z,16.77
2024-02-11T05:04:29.049Z,19.40
2024-02-11T05:07:28.788Z,21.17
2024-02-11T05:10:21.250Z,16.08
2024-02-11T05:13:16.106Z,22.35
2024-02-11T05:16:11.822Z,23.05
2024-02-11T05:18:58.018Z,18.85
2024-02-11T05:21:35.914Z,23.45
2024-02-11T05:24:56.705Z,18.00
2024-02-11T05:27:29.951Z,22.25
2024-02-11T05:30:07.796Z,22.83
2024-02-11T05:33:09.063Z,23.95
2024-02-11T05:36:24.370Z,21.05
2024-02-11T05:39:30.950Z,21.20
2024-02-11T05:42:15.590Z,25.35
2024-02-11T05:47:50.659Z,25.58
2024-02-11T05:50:30.594Z,26.02
2024-02-11T05:53:47.669Z,24.05
2024-02-11T05:56:26.402Z,24.20
2024-02-11T05:59:06.390Z,23.40
2024-02-11T06:01:40.113Z,25.73
2024-02-11T06:04:24.440Z,19.75
2024-02-11T06:07:22.238Z,26.67
2024-02-11T06:09:56.671Z,25.42
2024-02-11T06:12:29.116Z,26.95
2024-02-11T06:15:39.916Z,26.05
2024-02-11T06:18:27.950Z,22.15
2024-02-11T06:21:02.377Z,23.77
2024-02-11T06:23:38.627Z,19.45
2024-02-11T06:26:15.785Z,26.55
2024-02-11T06:28:52.071Z,28.20
2024-02-11T06:31:23.452Z,24.63
2024-02-11T06:34:00.146Z,23.15
2024-02-11T06:36:36.349Z,26.55
2024-02-11T06:39:14.198Z,22.67
2024-02-11T06:42:01.556Z,27.55
2024-02-11T06:44:51.510Z,22.02
2024-02-11T06:47:49.473Z,25.38
2024-02-11T06:50:41.117Z,26.58
2024-02-11T06:53:55.392Z,27.85
2024-02-11T06:57:11.708Z,27.33
2024-02-11T07:00:06.898Z,19.88
2024-02-11T07:02:43.337Z,23.05
2024-02-11T07:05:15.603Z,24.63
2024-02-11T07:07:51.826Z,23.83
2024-02-11T07:10:20.989Z,22.30
2024-02-11T07:12:51.671Z,21.23
2024-02-11T07:15:26.406Z,22.42
2024-02-11T07:17:59.420Z,26.38
2024-02-11T07:20:34.857Z,20.20
2024-02-11T07:23:06.821Z,26.80
2024-02-11T07:25:35.898Z,23.88
2024-02-11T07:28:03.365Z,23.00
2024-02-11T07:30:32.304Z,21.15
2024-02-11T07:33:04.714Z,20.65
2024-02-11T07:35:31.826Z,24.25
2024-02-11T07:38:02.552Z,25.83
2024-02-11T07:40:35.548Z,18.95
2024-02-11T07:43:02.714Z,19.98
2024-02-11T07:45:30.349Z,21.50
2024-02-11T07:47:57.358Z,17.02
2024-02-11T07:50:52.417Z,21.63
2024-02-11T07:53:46.841Z,17.05
2024-02-11T07:56:34.723Z,20.13
2024-02-11T07:59:05.880Z,17.73
2024-02-11T08:02:01.057Z,19.15
2024-02-11T08:04:43.345Z,17.15
2024-02-11T08:07:12.670Z,15.13
2024-02-11T08:09:49.425Z,15.30
2024-02-11T08:12:40.857Z,14.18
2024-02-11T08:15:25.540Z,16.92
2024-02-11T08:18:30.669Z,15.45
2024-02-11T08:21:20.530Z,13.23
2024-02-11T08:23:55.644Z,16.15
2024-02-11T08:26:40.355Z,14.80
2024-02-11T08:29:17.908Z,14.75
2024-02-11T08:31:58.801Z,12.10
2024-02-11T08:34:26.874Z,13.40
2024-02-11T08:36:55.876Z,14.00
2024-02-11T08:39:41.451Z,12.23
2024-02-11T08:42:24.840Z,15.48
2024-02-11T08:44:54.859Z,11.30
2024-02-11T08:47:29.192Z,17.15
2024-02-11T08:50:04.524Z,13.93
2024-02-11T08:52:44.972Z,14.48
2024-02-11T08:55:15.304Z,14.77
2024-02-11T08:58:02.424Z,15.13
2024-02-11T09:00:59.252Z,13.63
2024-02-11T09:03:37.668Z,15.00
2024-02-11T09:06:23.306Z,13.57
2024-02-11T09:08:57.747Z,12.80
2024-02-11T09:11:36.058Z,15.30
2024-02-11T09:14:14.492Z,13.07
2024-02-11T09:17:05.034Z,14.30
2024-02-11T09:20:07.498Z,15.93
2024-02-11T09:22:55.940Z,14.40
2024-02-11T09:25:56.997Z,14.77
2024-02-11T09:28:34.436Z,13.55
2024-02-11T09:31:35.823Z,19.65
2024-02-11T09:34:32.871Z,13.05
2024-02-11T09:37:23.642Z,16.13
2024-02-11T09:40:05.294Z,13.50
2024-02-11T09:42:39.632Z,14.25
2024-02-11T09:45:26.367Z,13.90
2024-02-11T09:48:18.279Z,13.43
2024-02-11T09:51:00.416Z,13.13
2024-02-11T09:53:50.518Z,12.68
2024-02-11T09:56:26.543Z,9.43
2024-02-11T09:58:59.632Z,12.57
2024-02-11T10:01:41.348Z,12.73
2024-02-11T10:04:30.705Z,8.90
2024-02-11T10:07:20.529Z,11.90
2024-02-11T10:09:57.013Z,11.10
2024-02-11T10:12:46.081Z,9.23
2024-02-11T10:18:12.656Z,8.98
2024-02-11T10:20:55.983Z,11.50
2024-02-11T10:23:44.586Z,10.50
2024-02-11T10:26:48.930Z,7.22
2024-02-11T10:29:40.449Z,12.32
2024-02-11T10:32:23.125Z,11.32
2024-02-11T10:34:55.737Z,8.48
2024-02-11T10:37:26.391Z,9.82
2024-02-11T10:40:13.475Z,10.52
2024-02-11T10:42:42.628Z,9.60
2024-02-11T10:45:20.154Z,8.75
2024-02-11T10:47:50.562Z,7.53
2024-02-11T10:50:34.383Z,10.18
2024-02-11T10:53:25.796Z,6.25
2024-02-11T10:56:03.956Z,7.55
2024-02-11T10:58:55.262Z,11.55
2024-02-11T11:04:18.275Z,6.38
2024-02-11T11:09:56.961Z,9.95
2024-02-11T11:12:37.536Z,8.75
2024-02-11T11:15:25.243Z,6.97
2024-02-11T11:17:55.597Z,7.68
2024-02-11T11:20:35.879Z,6.20
2024-02-11T11:23:24.653Z,6.22
2024-02-11T11:26:03.446Z,6.03
2024-02-11T11:28:46.178Z,7.40
2024-02-11T11:31:18.751Z,6.07
2024-02-11T11:33:59.670Z,13.07
2024-02-11T11:36:28.348Z,5.93
2024-02-11T11:39:13.038Z,8.38
2024-02-11T11:41:48.416Z,8.25
2024-02-11T11:44:29.810Z,13.63
2024-02-11T11:47:14.032Z,6.85
2024-02-11T11:49:50.708Z,10.00
2024-02-11T11:52:49.361Z,4.70
2024-02-11T11:55:26.749Z,8.80
2024-02-11T11:58:09.924Z,13.40
2024-02-11T12:00:47.074Z,11.98
2024-02-11T12:03:24.528Z,12.27
2024-02-11T12:06:00.712Z,14.07
2024-02-11T12:08:57.598Z,10.40
2024-02-11T12:11:35.837Z,10.80
2024-02-11T12:14:14.581Z,9.20
2024-02-11T12:16:46.339Z,10.00
2024-02-11T12:19:25.085Z,10.32
2024-02-11T12:22:08.191Z,8.75
2024-02-11T12:24:52.210Z,5.53
2024-02-11T12:27:25.762Z,7.80
2024-02-11T12:30:07.287Z,10.20
2024-02-11T12:32:43.271Z,6.90
2024-02-11T12:35:31.271Z,9.10
2024-02-11T12:38:12.250Z,8.43
2024-02-11T12:40:54.101Z,11.13
2024-02-11T12:43:39.493Z,7.72
2024-02-11T12:46:11.403Z,7.88
2024-02-11T12:48:53.292Z,6.53
2024-02-11T12:54:30.156Z,4.78
2024-02-11T12:59:52.703Z,4.15
2024-02-11T13:02:23.790Z,7.65
2024-02-11T13:04:54.867Z,5.28
2024-02-11T13:07:28.786Z,5.88
2024-02-11T13:09:58.000Z,7.68
2024-02-11T13:12:59.954Z,6.32
2024-02-11T13:15:35.617Z,5.65
2024-02-11T13:18:07.156Z,5.85
2024-02-11T13:20:46.207Z,3.78
2024-02-11T13:23:18.524Z,4.35
2024-02-11T13:25:53.187Z,5.35
2024-02-11T13:28:26.893Z,3.92
2024-02-11T13:31:09.874Z,6.38
2024-02-11T13:33:50.604Z,5.28
2024-02-11T13:36:31.693Z,5.35
2024-02-11T13:39:03.586Z,5.47
2024-02-11T13:41:48.458Z,6.95
2024-02-11T13:44:42.317Z,6.60
2024-02-11T13:47:16.511Z,5.72
2024-02-11T13:49:59.843Z,6.13
2024-02-11T13:52:34.786Z,6.25
2024-02-11T13:55:19.685Z,5.53
2024-02-11T13:57:55.082Z,5.28
2024-02-11T14:00:33.739Z,6.78
2024-02-11T14:03:13.300Z,6.32
2024-02-11T14:05:59.097Z,4.82
2024-02-11T14:08:33.972Z,5.13
2024-02-11T14:11:05.322Z,5.10
2024-02-11T14:13:46.009Z,7.85
2024-02-11T14:16:19.909Z,6.22
2024-02-11T14:18:51.042Z,4.55
2024-02-11T14:21:29.958Z,3.75
2024-02-11T14:24:18.240Z,5.65
2024-02-11T14:27:05.064Z,3.72
2024-02-11T14:29:38.057Z,6.43
2024-02-11T14:32:10.306Z,5.68
2024-02-11T14:34:46.019Z,5.18
2024-02-11T14:37:38.908Z,5.53
2024-02-11T14:40:10.924Z,2.10
2024-02-11T14:42:48.484Z,5.13
2024-02-11T14:45:31.966Z,4.03
2024-02-11T14:48:06.038Z,2.00
2024-02-11T14:50:36.661Z,4.07
2024-02-11T14:53:12.306Z,7.90
2024-02-11T14:55:42.853Z,3.05
2024-02-11T14:58:20.639Z,4.18
2024-02-11T15:01:01.244Z,4.85
2024-02-11T15:03:44.802Z,5.45
2024-02-11T15:06:37.013Z,6.50
2024-02-11T15:09:14.222Z,5.95
2024-02-11T15:11:43.859Z,2.78
2024-02-11T15:14:20.573Z,5.30
2024-02-11T15:16:59.045Z,4.60
2024-02-11T15:19:32.275Z,6.25
2024-02-11T15:22:20.833Z,3.80
2024-02-11T15:25:24.349Z,3.83
2024-02-11T15:27:56.261Z,4.30
2024-02-11T15:30:26.791Z,2.75
2024-02-11T15:33:06.447Z,2.42
2024-02-11T15:35:52.374Z,2.45
2024-02-11T15:38:35.520Z,1.50
2024-02-11T15:41:34.193Z,4.15
2024-02-11T15:44:20.851Z,3.97
2024-02-11T15:47:08.148Z,2.40
2024-02-11T15:49:44.091Z,2.38
2024-02-11T15:52:41.522Z,4.13
2024-02-11T15:55:37.008Z,3.58
2024-02-11T15:58:17.010Z,3.15
2024-02-11T16:00:51.952Z,1.45
2024-02-11T16:03:31.270Z,3.85
2024-02-11T16:06:10.472Z,2.20
2024-02-11T16:08:48.006Z,2.40
2024-02-11T16:11:25.271Z,2.53
2024-02-11T16:13:57.773Z,3.38
2024-02-11T16:16:38.834Z,2.83
2024-02-11T16:19:14.268Z,12.50
2024-02-11T16:22:01.501Z,6.13
2024-02-11T16:24:44.744Z,4.15
2024-02-11T16:27:22.824Z,2.72
2024-02-11T16:30:08.940Z,1.75
2024-02-11T16:33:19.730Z,3.80
2024-02-11T16:36:01.811Z,2.05
2024-02-11T16:38:37.312Z,1.48
2024-02-11T16:41:23.265Z,1.20
2024-02-11T16:43:58.516Z,2.17
2024-02-11T16:46:46.670Z,2.83
2024-02-11T16:49:27.985Z,1.58
2024-02-11T16:51:59.930Z,2.53
2024-02-11T16:54:49.182Z,2.05
2024-02-11T16:57:39.272Z,1.42
2024-02-11T17:00:22.104Z,2.13
2024-02-11T17:03:30.485Z,1.27
2024-02-11T17:06:09.924Z,1.45
2024-02-11T17:09:00.822Z,2.28
2024-02-11T17:12:21.946Z,1.98
2024-02-11T17:14:58.972Z,2.70
2024-02-11T17:20:25.812Z,6.35
2024-02-11T17:23:12.783Z,5.75
2024-02-11T17:26:10.178Z,4.20
2024-02-11T17:28:54.713Z,3.70
2024-02-11T17:31:33.874Z,2.60
2024-02-11T17:34:17.238Z,3.05
2024-02-11T17:37:02.626Z,3.85
2024-02-11T17:39:51.215Z,1.92
2024-02-11T17:42:30.982Z,2.15
2024-02-11T17:45:09.385Z,6.70
2024-02-11T17:47:41.108Z,3.92
2024-02-11T17:50:19.990Z,2.90
2024-02-11T17:52:56.986Z,1.70
2024-02-11T17:55:37.972Z,3.53
2024-02-11T17:58:10.617Z,2.78
2024-02-11T18:00:59.338Z,2.67
2024-02-11T18:03:50.189Z,1.88
2024-02-11T18:06:24.524Z,2.13
2024-02-11T18:09:11.355Z,4.57
2024-02-11T18:11:46.069Z,3.97
2024-02-11T18:14:22.269Z,3.83
2024-02-11T18:16:59.743Z,4.00
2024-02-11T18:19:36.062Z,4.32
2024-02-11T18:22:16.495Z,2.42
2024-02-11T18:25:06.575Z,2.92
2024-02-11T18:30:46.860Z,2.40
2024-02-11T18:33:23.846Z,2.28
2024-02-11T18:36:06.420Z,4.68
2024-02-11T18:38:40.445Z,1.83
2024-02-11T18:44:05.512Z,1.27
2024-02-11T18:46:55.843Z,4.50
2024-02-11T18:49:39.365Z,1.77
2024-02-11T18:52:10.937Z,2.25
2024-02-11T18:54:54.827Z,2.30
2024-02-11T18:57:45.160Z,2.30
2024-02-11T19:00:27.526Z,1.77
2024-02-11T19:03:31.881Z,3.10
2024-02-11T19:06:20.582Z,2.05
2024-02-11T19:08:48.543Z,2.22
2024-02-11T19:15:51.261Z,3.42
2024-02-11T19:18:17.180Z,4.28
2024-02-11T19:23:57.420Z,1.55
2024-02-11T19:26:36.537Z,2.85
2024-02-11T19:29:04.901Z,1.55
2024-02-11T19:34:41.910Z,4.10
2024-02-11T19:37:31.514Z,2.80
2024-02-11T19:40:16.460Z,3.15
2024-02-11T19:42:59.727Z,2.83
2024-02-11T19:48:29.724Z,5.07
2024-02-11T19:51:22.890Z,3.67
2024-02-11T19:54:05.927Z,1.60
2024-02-11T19:56:41.322Z,2.15
2024-02-11T19:59:16.542Z,3.53
2024-02-11T20:01:54.569Z,3.20
2024-02-11T20:04:25.007Z,5.28
2024-02-11T20:07:05.389Z,4.13
2024-02-11T20:09:45.384Z,5.70
2024-02-11T20:12:31.923Z,5.40
2024-02-11T20:15:11.748Z,2.88
2024-02-11T20:17:57.387Z,1.30
2024-02-11T20:20:45.277Z,3.90
2024-02-11T20:23:30.679Z,3.75
2024-02-11T20:26:29.260Z,4.05
2024-02-11T20:28:57.884Z,3.58
2024-02-11T20:34:18.217Z,3.45
2024-02-11T20:36:51.859Z,3.75
2024-02-11T20:39:40.495Z,1.80
2024-02-11T20:42:19.468Z,2.60
2024-02-11T20:44:58.243Z,5.85
2024-02-11T20:47:31.288Z,3.45
2024-02-11T20:50:08.679Z,2.30
2024-02-11T20:52:42.704Z,2.95
2024-02-11T20:55:29.549Z,2.17
2024-02-11T20:58:06.799Z,2.55
2024-02-11T21:00:37.932Z,5.13
2024-02-11T21:03:12.672Z,2.65
2024-02-11T21:05:48.870Z,2.67
2024-02-11T21:08:24.264Z,3.53
2024-02-11T21:11:08.027Z,1.70
2024-02-11T21:13:55.774Z,4.32
2024-02-11T21:16:45.918Z,4.18
2024-02-11T21:19:30.754Z,4.15
2024-02-11T21:22:19.174Z,3.15
2024-02-11T21:25:02.429Z,2.85
2024-02-11T21:27:52.626Z,4.47
2024-02-11T21:30:40.691Z,3.58
2024-02-11T21:33:13.560Z,2.58
2024-02-11T21:35:48.768Z,5.50
2024-02-11T21:38:22.921Z,1.83
2024-02-11T21:40:58.046Z,3.30
2024-02-11T21:43:54.561Z,3.67
2024-02-11T21:46:55.407Z,2.20
2024-02-11T21:49:27.515Z,3.13
2024-02-11T21:52:13.911Z,3.30
2024-02-11T21:55:13.583Z,3.40
2024-02-11T21:57:49.199Z,2.70
2024-02-11T22:00:22.353Z,2.90
2024-02-11T22:03:13.306Z,5.18
2024-02-11T22:08:20.661Z,4.07
2024-02-11T22:11:05.218Z,6.05
2024-02-11T22:13:41.319Z,5.47
2024-02-11T22:16:30.652Z,3.30
2024-02-11T22:19:03.464Z,2.80
2024-02-11T22:21:31.007Z,4.20
2024-02-11T22:24:11.273Z,4.25
2024-02-11T22:27:07.188Z,3.55
2024-02-11T22:29:58.800Z,4.20
2024-02-11T22:32:42.082Z,5.13
2024-02-11T22:35:14.370Z,4.00
2024-02-11T22:37:51.356Z,2.10
2024-02-11T22:40:29.146Z,4.38
2024-02-11T22:43:16.296Z,3.40
2024-02-11T22:45:44.808Z,3.67
2024-02-11T22:48:18.720Z,2.17
2024-02-11T22:50:46.862Z,3.58
2024-02-11T22:53:17.360Z,3.08
2024-02-11T22:55:51.800Z,2.22
2024-02-11T22:58:25.161Z,2.45
2024-02-11T23:00:56.703Z,3.05
2024-02-11T23:03:24.252Z,3.25
2024-02-11T23:05:59.237Z,2.25
2024-02-11T23:08:26.137Z,4.13
2024-02-11T23:11:00.127Z,3.45
2024-02-11T23:13:28.761Z,3.65
2024-02-11T23:15:56.329Z,2.00
2024-02-11T23:18:53.577Z,2.00
2024-02-11T23:21:28.918Z,1.70
2024-02-11T23:24:17.480Z,1.95
2024-02-11T23:27:16.811Z,2.92
2024-02-11T23:30:09.563Z,3.28
2024-02-11T23:32:49.740Z,1.50
2024-02-11T23:35:28.630Z,3.85
2024-02-11T23:38:05.182Z,3.03
2024-02-11T23:40:46.867Z,1.85
2024-02-11T23:43:37.217Z,3.10
2024-02-11T23:46:23.699Z,3.40
2024-02-11T23:49:02.422Z,5.40
2024-02-11T23:51:53.261Z,3.83
2024-02-11T23:54:29.805Z,3.00
2024-02-11T23:57:05.848Z,2.47
2024-02-11T23:59:49.162Z,2.83
